Time;durP1;ratioP1;P1;durP2;ratioP2;P2;SDS_P1;SDS_P2;PMS_P1;PMS_P2;Temp;Humidity;BMP_temperature;BMP_pressure;BME280_temperature;BME280_humidity;BME280_pressure;Samples;Min_cycle;Max_cycle;Signal;HPM_P1;HPM_P2
2023/12/07 00:00:32;;;;;;;11.02;10.02;;;;;;;;;;5059540;28;20492;-80
2023/12/07 00:02:59;;;;;;;10.90;9.80;;;;;;;;;;5059871;28;20378;-80
2023/12/07 00:05:25;;;;;;;11.65;10.60;;;;;;;;;;5073502;28;20385;-80
2023/12/07 00:07:51;;;;;;;10.90;9.98;;;;;;;;;;5059463;28;20393;-80
2023/12/07 00:10:17;;;;;;;10.75;9.75;;;;;;;;;;5059473;28;20392;-80
2023/12/07 00:12:43;;;;;;;10.23;9.32;;;;;;;;;;5059312;28;20416;-80
2023/12/07 00:15:09;;;;;;;11.55;10.45;;;;;;;;;;5059343;28;20393;-80
2023/12/07 00:17:35;;;;;;;10.27;9.38;;;;;;;;;;5058984;28;20447;-80
2023/12/07 00:20:04;;;;;;;11.18;10.18;;;;;;;;;;5059934;28;20374;-80
2023/12/07 00:22:30;;;;;;;10.10;9.20;;;;;;;;;;5058709;28;20408;-80
2023/12/07 00:24:56;;;;;;;10.27;9.38;;;;;;;;;;5059641;28;20385;-80
2023/12/07 00:27:21;;;;;;;10.63;9.73;;;;;;;;;;5058825;28;20457;-80
2023/12/07 00:29:47;;;;;;;10.65;9.65;;;;;;;;;;5059115;28;20428;-80
2023/12/07 00:32:13;;;;;;;11.02;10.13;;;;;;;;;;5059331;28;20460;-80
2023/12/07 00:34:39;;;;;;;10.80;9.90;;;;;;;;;;5058964;28;20385;-80
2023/12/07 00:37:05;;;;;;;9.90;9.10;;;;;;;;;;5059562;28;20496;-80
2023/12/07 00:39:31;;;;;;;11.00;10.05;;;;;;;;;;5073188;28;20369;-80
2023/12/07 00:41:57;;;;;;;10.90;9.90;;;;;;;;;;5059320;28;20388;-80
2023/12/07 00:44:24;;;;;;;10.35;9.35;;;;;;;;;;5058871;28;20392;-80
2023/12/07 00:46:50;;;;;;;10.20;9.30;;;;;;;;;;5058082;28;20417;-79
2023/12/07 00:49:16;;;;;;;10.05;9.15;;;;;;;;;;5059079;28;20390;-80
2023/12/07 00:51:43;;;;;;;9.50;8.70;;;;;;;;;;5058950;28;20454;-80
2023/12/07 00:54:09;;;;;;;10.07;9.27;;;;;;;;;;5060591;28;20914;-80
2023/12/07 00:56:35;;;;;;;9.65;8.85;;;;;;;;;;5059825;28;20424;-80
2023/12/07 00:59:01;;;;;;;10.13;9.23;;;;;;;;;;5069837;28;20376;-80
2023/12/07 01:01:28;;;;;;;9.38;8.63;;;;;;;;;;5061302;28;20434;-80
2023/12/07 01:03:54;;;;;;;10.13;9.23;;;;;;;;;;5063438;28;20853;-80
2023/12/07 01:06:20;;;;;;;10.68;9.77;;;;;;;;;;5067120;28;20382;-80
2023/12/07 01:08:46;;;;;;;10.20;9.32;;;;;;;;;;5058583;28;20886;-80
2023/12/07 01:11:12;;;;;;;9.73;8.82;;;;;;;;;;5063703;28;20408;-80
2023/12/07 01:13:38;;;;;;;11.05;10.07;;;;;;;;;;5067249;28;20380;-80
2023/12/07 01:16:04;;;;;;;10.03;9.13;;;;;;;;;;5058094;28;20464;-79
2023/12/07 01:18:30;;;;;;;9.32;8.43;;;;;;;;;;5058004;28;20385;-80
2023/12/07 01:20:56;;;;;;;10.13;9.27;;;;;;;;;;5058349;28;20400;-80
2023/12/07 01:23:22;;;;;;;9.68;8.80;;;;;;;;;;5058847;28;20388;-79
2023/12/07 01:25:48;;;;;;;9.52;8.73;;;;;;;;;;5057509;28;20443;-80
2023/12/07 01:28:14;;;;;;;10.40;9.57;;;;;;;;;;5058286;28;20380;-80
2023/12/07 01:30:40;;;;;;;9.05;8.35;;;;;;;;;;5057834;28;20744;-79
2023/12/07 01:33:06;;;;;;;9.80;8.93;;;;;;;;;;5057674;28;20416;-80
2023/12/07 01:35:32;;;;;;;10.13;9.25;;;;;;;;;;5057675;28;20374;-79
2023/12/07 01:37:58;;;;;;;9.40;8.60;;;;;;;;;;5057467;28;20960;-80
2023/12/07 01:40:24;;;;;;;9.37;8.57;;;;;;;;;;5064645;28;20413;-80
2023/12/07 01:42:51;;;;;;;9.77;8.98;;;;;;;;;;5057783;28;20399;-79
2023/12/07 01:45:17;;;;;;;9.68;8.88;;;;;;;;;;5058079;28;20378;-80
2023/12/07 01:47:43;;;;;;;8.80;8.10;;;;;;;;;;5057593;28;20417;-80
2023/12/07 01:50:10;;;;;;;9.65;8.75;;;;;;;;;;5057588;28;20528;-79
2023/12/07 01:52:38;;;;;;;10.10;9.18;;;;;;;;;;5057226;28;20879;-80
2023/12/07 01:55:05;;;;;;;9.55;8.75;;;;;;;;;;5057747;28;20438;-80
2023/12/07 01:57:31;;;;;;;9.20;8.40;;;;;;;;;;5056792;28;20463;-80
2023/12/07 01:59:57;;;;;;;9.20;8.45;;;;;;;;;;5057789;28;20723;-80
2023/12/07 02:02:23;;;;;;;9.27;8.47;;;;;;;;;;5057520;28;20395;-80
2023/12/07 02:04:49;;;;;;;9.02;8.32;;;;;;;;;;5070765;28;20411;-80
2023/12/07 02:07:15;;;;;;;9.40;8.50;;;;;;;;;;5058577;28;20382;-80
2023/12/07 02:09:41;;;;;;;9.82;9.02;;;;;;;;;;5057573;28;20378;-80
2023/12/07 02:12:08;;;;;;;8.93;8.23;;;;;;;;;;5057110;28;20385;-79
2023/12/07 02:14:34;;;;;;;9.00;8.30;;;;;;;;;;5057514;28;20835;-79
2023/12/07 02:17:00;;;;;;;8.90;8.20;;;;;;;;;;5057366;28;20404;-80
2023/12/07 02:19:35;;;;;;;8.77;7.97;;;;;;;;;;5056786;28;20464;-80
2023/12/07 02:22:03;;;;;;;9.80;9.02;;;;;;;;;;5056655;28;20441;-80
2023/12/07 02:24:33;;;;;;;9.75;8.95;;;;;;;;;;5056702;28;20381;-80
2023/12/07 02:26:59;;;;;;;8.73;8.02;;;;;;;;;;5057470;28;20439;-79
2023/12/07 02:29:25;;;;;;;9.35;8.50;;;;;;;;;;5071336;28;20385;-79
2023/12/07 02:31:51;;;;;;;9.27;8.48;;;;;;;;;;5057536;28;20392;-79
2023/12/07 02:34:19;;;;;;;9.35;8.60;;;;;;;;;;5071314;28;20392;-79
2023/12/07 02:36:46;;;;;;;9.65;8.85;;;;;;;;;;5056648;28;20452;-79
2023/12/07 02:39:13;;;;;;;8.83;8.03;;;;;;;;;;5057084;28;20856;-80
2023/12/07 02:41:40;;;;;;;8.80;8.10;;;;;;;;;;5064089;28;20403;-79
2023/12/07 02:44:07;;;;;;;9.10;8.30;;;;;;;;;;5057063;28;20454;-80
2023/12/07 02:46:33;;;;;;;8.93;8.23;;;;;;;;;;5056538;28;20396;-79
2023/12/07 02:48:59;;;;;;;8.98;8.27;;;;;;;;;;5057565;28;20393;-79
2023/12/07 02:51:25;;;;;;;9.60;8.70;;;;;;;;;;5056360;28;20394;-79
2023/12/07 02:53:51;;;;;;;9.23;8.45;;;;;;;;;;5064568;28;20411;-79
2023/12/07 02:56:17;;;;;;;9.00;8.20;;;;;;;;;;5059698;28;20416;-79
2023/12/07 02:58:43;;;;;;;9.43;8.63;;;;;;;;;;5058474;28;20389;-79
2023/12/07 03:01:10;;;;;;;9.98;9.18;;;;;;;;;;5061276;28;20389;-79
2023/12/07 03:03:38;;;;;;;9.57;8.77;;;;;;;;;;5058946;28;20930;-79
2023/12/07 03:06:04;;;;;;;9.20;8.40;;;;;;;;;;5066531;28;20414;-79
2023/12/07 03:08:30;;;;;;;9.57;8.77;;;;;;;;;;5056289;28;20386;-79
2023/12/07 03:10:56;;;;;;;9.35;8.55;;;;;;;;;;5055816;28;20427;-79
2023/12/07 03:13:22;;;;;;;9.70;8.90;;;;;;;;;;5055503;28;20373;-79
2023/12/07 03:15:48;;;;;;;9.23;8.43;;;;;;;;;;5055264;28;20478;-79
2023/12/07 03:18:14;;;;;;;9.35;8.55;;;;;;;;;;5055031;28;20402;-79
2023/12/07 03:20:41;;;;;;;9.23;8.43;;;;;;;;;;5055649;28;20886;-79
2023/12/07 03:23:07;;;;;;;9.20;8.40;;;;;;;;;;5054848;28;20384;-79
2023/12/07 03:25:33;;;;;;;9.70;8.80;;;;;;;;;;5055037;28;20374;-79
2023/12/07 03:27:59;;;;;;;10.32;9.52;;;;;;;;;;5055411;28;20852;-79
2023/12/07 03:30:25;;;;;;;9.13;8.38;;;;;;;;;;5055127;28;20378;-80
2023/12/07 03:32:51;;;;;;;9.52;8.73;;;;;;;;;;5054940;28;20423;-79
2023/12/07 03:35:17;;;;;;;9.50;8.70;;;;;;;;;;5057177;28;20460;-79
2023/12/07 03:37:43;;;;;;;9.30;8.60;;;;;;;;;;5054718;28;20551;-79
2023/12/07 03:40:09;;;;;;;9.37;8.67;;;;;;;;;;5054502;28;20373;-79
2023/12/07 03:42:35;;;;;;;9.15;8.45;;;;;;;;;;5056812;28;20886;-79
2023/12/07 03:45:01;;;;;;;9.07;8.35;;;;;;;;;;5054342;28;20385;-79
2023/12/07 03:47:27;;;;;;;9.27;8.48;;;;;;;;;;5054840;28;20428;-79
2023/12/07 03:49:53;;;;;;;8.52;7.78;;;;;;;;;;5054657;28;20397;-79
2023/12/07 03:52:19;;;;;;;8.07;7.38;;;;;;;;;;5054719;28;20381;-79
2023/12/07 03:54:45;;;;;;;8.90;8.15;;;;;;;;;;5054350;28;20385;-79
2023/12/07 03:57:11;;;;;;;8.45;7.75;;;;;;;;;;5055706;28;20419;-79
2023/12/07 03:59:37;;;;;;;7.93;7.32;;;;;;;;;;5072205;28;20376;-79
2023/12/07 04:02:03;;;;;;;8.40;7.72;;;;;;;;;;5058708;28;20424;-79
2023/12/07 04:04:29;;;;;;;7.80;7.20;;;;;;;;;;5068848;28;20372;-79
2023/12/07 04:06:56;;;;;;;9.20;8.40;;;;;;;;;;5062271;28;20407;-80
2023/12/07 04:09:22;;;;;;;8.60;7.90;;;;;;;;;;5059003;28;20377;-79
2023/12/07 04:11:47;;;;;;;8.70;8.00;;;;;;;;;;5058382;28;20389;-79
2023/12/07 04:14:15;;;;;;;9.13;8.43;;;;;;;;;;5058323;28;20862;-79
2023/12/07 04:16:41;;;;;;;9.75;8.90;;;;;;;;;;5058583;28;20903;-79
2023/12/07 04:19:07;;;;;;;9.82;9.00;;;;;;;;;;5057831;28;20756;-79
2023/12/07 04:21:33;;;;;;;8.63;7.93;;;;;;;;;;5058041;28;20385;-79
2023/12/07 04:23:59;;;;;;;8.93;8.23;;;;;;;;;;5058369;28;20378;-79
2023/12/07 04:26:25;;;;;;;9.13;8.43;;;;;;;;;;5058099;28;20768;-79
2023/12/07 04:28:51;;;;;;;9.20;8.50;;;;;;;;;;5058098;28;20390;-79
2023/12/07 04:31:17;;;;;;;8.90;8.20;;;;;;;;;;5057369;28;20464;-79
2023/12/07 04:33:43;;;;;;;8.90;8.20;;;;;;;;;;5058114;28;20421;-79
2023/12/07 04:36:09;;;;;;;8.40;7.70;;;;;;;;;;5057150;28;20461;-79
2023/12/07 04:38:35;;;;;;;8.50;7.80;;;;;;;;;;5057447;28;20378;-79
2023/12/07 04:41:01;;;;;;;8.57;7.88;;;;;;;;;;5057484;28;20747;-79
2023/12/07 04:43:27;;;;;;;8.63;7.93;;;;;;;;;;5067954;28;20378;-79
2023/12/07 04:45:53;;;;;;;9.00;8.30;;;;;;;;;;5058097;28;20428;-79
2023/12/07 04:48:19;;;;;;;8.60;7.90;;;;;;;;;;5057028;28;20405;-79
2023/12/07 04:50:47;;;;;;;8.80;8.10;;;;;;;;;;5057222;28;20437;-79
2023/12/07 04:53:13;;;;;;;8.50;7.80;;;;;;;;;;5057363;28;20385;-79
2023/12/07 04:55:39;;;;;;;9.25;8.27;;;;;;;;;;5057958;28;20432;-79
2023/12/07 04:58:05;;;;;;;8.43;7.72;;;;;;;;;;5061335;28;20412;-79
2023/12/07 05:00:31;;;;;;;8.55;7.85;;;;;;;;;;5077824;28;20372;-79
2023/12/07 05:02:57;;;;;;;8.65;7.95;;;;;;;;;;5076047;28;20384;-79
2023/12/07 05:05:24;;;;;;;8.40;7.70;;;;;;;;;;5071768;28;20465;-79
2023/12/07 05:07:50;;;;;;;8.70;7.97;;;;;;;;;;5039527;28;20390;-79
2023/12/07 05:10:16;;;;;;;9.35;8.55;;;;;;;;;;5057137;28;20389;-79
2023/12/07 05:12:42;;;;;;;10.63;9.63;;;;;;;;;;5057885;28;20431;-79
2023/12/07 05:15:09;;;;;;;9.43;8.63;;;;;;;;;;5057684;28;20381;-79
2023/12/07 05:17:35;;;;;;;10.25;9.35;;;;;;;;;;5039895;28;20412;-79
2023/12/07 05:20:02;;;;;;;9.30;8.50;;;;;;;;;;5057042;28;20373;-79
2023/12/07 05:22:28;;;;;;;9.45;8.65;;;;;;;;;;5057556;28;20411;-79
2023/12/07 05:24:54;;;;;;;9.32;8.43;;;;;;;;;;5057522;28;20381;-79
2023/12/07 05:27:20;;;;;;;9.30;8.50;;;;;;;;;;5057438;28;20382;-79
2023/12/07 05:29:46;;;;;;;10.18;9.18;;;;;;;;;;5056608;28;20415;-79
2023/12/07 05:32:12;;;;;;;11.75;10.65;;;;;;;;;;5056815;28;20858;-79
2023/12/07 05:34:38;;;;;;;9.93;9.02;;;;;;;;;;5056590;28;20385;-79
2023/12/07 05:37:04;;;;;;;9.60;8.80;;;;;;;;;;5056612;28;20405;-79
2023/12/07 05:39:30;;;;;;;9.10;8.35;;;;;;;;;;5056522;28;20431;-79
2023/12/07 05:41:56;;;;;;;8.60;7.90;;;;;;;;;;5058625;28;20404;-79
2023/12/07 05:44:22;;;;;;;8.75;8.05;;;;;;;;;;5066696;28;20433;-79
2023/12/07 05:46:49;;;;;;;9.85;8.98;;;;;;;;;;5056468;28;20793;-79
2023/12/07 05:49:15;;;;;;;8.90;8.20;;;;;;;;;;5056318;28;20503;-79
2023/12/07 05:51:41;;;;;;;8.95;8.20;;;;;;;;;;5056368;28;20409;-79
2023/12/07 05:54:07;;;;;;;9.10;8.32;;;;;;;;;;5056788;28;20544;-79
2023/12/07 05:56:33;;;;;;;9.30;8.60;;;;;;;;;;5055911;28;20431;-79
2023/12/07 05:58:59;;;;;;;9.68;8.77;;;;;;;;;;5055961;28;20382;-79
2023/12/07 06:01:25;;;;;;;9.05;8.25;;;;;;;;;;5056881;28;20386;-79
2023/12/07 06:03:51;;;;;;;9.10;8.35;;;;;;;;;;5061033;28;20438;-79
2023/12/07 06:06:17;;;;;;;9.00;8.30;;;;;;;;;;5064811;28;20381;-79
2023/12/07 06:08:44;;;;;;;9.07;8.27;;;;;;;;;;5056041;28;20794;-79
2023/12/07 06:11:10;;;;;;;10.40;9.40;;;;;;;;;;5056625;28;20379;-79
2023/12/07 06:13:36;;;;;;;19.57;14.87;;;;;;;;;;5055943;28;20405;-79
2023/12/07 06:16:02;;;;;;;20.60;16.42;;;;;;;;;;5056584;28;20407;-79
2023/12/07 06:18:28;;;;;;;16.50;13.52;;;;;;;;;;5056701;28;20381;-79
2023/12/07 06:20:54;;;;;;;14.23;12.73;;;;;;;;;;5037916;28;20871;-79
2023/12/07 06:23:20;;;;;;;11.73;10.63;;;;;;;;;;5055795;28;20389;-79
2023/12/07 06:25:47;;;;;;;10.32;9.43;;;;;;;;;;5056257;28;20457;-79
2023/12/07 06:28:13;;;;;;;11.48;10.38;;;;;;;;;;5056467;28;20867;-79
2023/12/07 06:30:39;;;;;;;10.15;9.25;;;;;;;;;;5056400;28;20377;-79
2023/12/07 06:33:05;;;;;;;10.48;9.48;;;;;;;;;;5055666;28;20808;-80
2023/12/07 06:35:31;;;;;;;10.95;9.95;;;;;;;;;;5056096;28;20393;-79
2023/12/07 06:37:57;;;;;;;11.40;10.30;;;;;;;;;;5055318;28;20421;-79
2023/12/07 06:40:23;;;;;;;11.13;10.02;;;;;;;;;;5056316;28;20378;-79
2023/12/07 06:42:49;;;;;;;11.80;10.60;;;;;;;;;;5055617;28;20767;-80
2023/12/07 06:45:15;;;;;;;11.45;10.35;;;;;;;;;;5058156;28;20378;-79
2023/12/07 06:47:44;;;;;;;10.90;9.90;;;;;;;;;;5059598;28;20411;-79
2023/12/07 06:50:10;;;;;;;17.35;15.20;;;;;;;;;;5055534;28;20456;-79
2023/12/07 06:52:39;;;;;;;12.00;10.85;;;;;;;;;;5055505;28;20386;-79
2023/12/07 06:55:06;;;;;;;11.70;10.60;;;;;;;;;;5061863;28;20443;-79
2023/12/07 06:57:32;;;;;;;13.38;12.07;;;;;;;;;;5060806;28;20435;-79
2023/12/07 06:59:58;;;;;;;15.30;13.82;;;;;;;;;;5057590;28;20774;-79
2023/12/07 07:02:24;;;;;;;14.40;12.80;;;;;;;;;;5056058;28;20377;-80
2023/12/07 07:04:50;;;;;;;12.43;11.13;;;;;;;;;;5069062;28;20380;-79
2023/12/07 07:07:16;;;;;;;13.57;12.03;;;;;;;;;;5056850;28;20472;-79
2023/12/07 07:09:42;;;;;;;15.82;11.93;;;;;;;;;;5056073;28;20388;-79
2023/12/07 07:12:08;;;;;;;14.93;12.53;;;;;;;;;;5054925;28;20400;-79
2023/12/07 07:14:34;;;;;;;17.27;12.85;;;;;;;;;;5055472;28;20893;-79
2023/12/07 07:17:00;;;;;;;16.83;12.45;;;;;;;;;;5054708;28;20468;-79
2023/12/07 07:19:26;;;;;;;19.73;14.02;;;;;;;;;;5054575;28;20863;-79
2023/12/07 07:21:52;;;;;;;20.73;14.00;;;;;;;;;;5054234;28;20404;-79
2023/12/07 07:24:18;;;;;;;23.73;14.27;;;;;;;;;;5054469;28;20434;-79
2023/12/07 07:26:44;;;;;;;26.38;16.08;;;;;;;;;;5054826;28;20859;-79
2023/12/07 07:29:10;;;;;;;22.00;15.30;;;;;;;;;;5054757;28;20472;-79
2023/12/07 07:31:36;;;;;;;25.85;16.23;;;;;;;;;;5054737;28;20388;-79
2023/12/07 07:34:02;;;;;;;28.85;16.90;;;;;;;;;;5059154;28;20378;-79
2023/12/07 07:36:29;;;;;;;25.88;16.23;;;;;;;;;;5058199;28;20424;-79
2023/12/07 07:38:55;;;;;;;28.52;16.27;;;;;;;;;;5058996;28;20377;-79
2023/12/07 07:41:21;;;;;;;30.90;19.33;;;;;;;;;;5058971;28;20373;-79
2023/12/07 07:43:47;;;;;;;27.40;16.30;;;;;;;;;;5062106;28;20742;-80
2023/12/07 07:46:14;;;;;;;25.33;16.20;;;;;;;;;;5059896;28;20460;-80
2023/12/07 07:48:40;;;;;;;26.73;16.55;;;;;;;;;;5061685;28;20392;-80
2023/12/07 07:51:06;;;;;;;27.77;16.45;;;;;;;;;;5059298;28;20378;-80
2023/12/07 07:53:32;;;;;;;27.70;17.52;;;;;;;;;;5058503;28;20392;-80
2023/12/07 07:55:58;;;;;;;27.52;17.23;;;;;;;;;;5059720;28;20389;-80
2023/12/07 07:58:24;;;;;;;24.75;17.00;;;;;;;;;;5059168;28;20405;-80
2023/12/07 08:00:52;;;;;;;29.15;16.83;;;;;;;;;;5058856;28;20380;-80
2023/12/07 08:03:17;;;;;;;26.20;17.00;;;;;;;;;;5058861;28;20875;-79
2023/12/07 08:05:43;;;;;;;26.67;17.88;;;;;;;;;;5072616;28;20384;-80
2023/12/07 08:08:10;;;;;;;26.13;17.98;;;;;;;;;;5058880;28;20384;-80
2023/12/07 08:10:36;;;;;;;28.90;18.08;;;;;;;;;;5073333;28;20404;-80
2023/12/07 08:13:02;;;;;;;24.33;17.23;;;;;;;;;;5058739;28;20468;-80
2023/12/07 08:15:28;;;;;;;23.25;16.15;;;;;;;;;;5059219;28;20490;-80
2023/12/07 08:17:55;;;;;;;22.98;15.90;;;;;;;;;;5057581;28;20401;-80
2023/12/07 08:20:21;;;;;;;25.40;17.23;;;;;;;;;;5058295;28;20503;-80
2023/12/07 08:22:47;;;;;;;23.57;16.57;;;;;;;;;;5058195;28;21058;-80
2023/12/07 08:25:13;;;;;;;19.42;15.35;;;;;;;;;;5058669;28;20416;-80
2023/12/07 08:27:39;;;;;;;20.73;16.07;;;;;;;;;;5057687;28;20378;-80
2023/12/07 08:30:06;;;;;;;21.83;16.30;;;;;;;;;;5057949;28;20381;-80
2023/12/07 08:32:32;;;;;;;21.33;15.75;;;;;;;;;;5057359;28;20426;-81
2023/12/07 08:34:58;;;;;;;25.23;17.60;;;;;;;;;;5057759;28;20393;-80
2023/12/07 08:37:24;;;;;;;24.35;16.83;;;;;;;;;;5057050;28;20405;-80
2023/12/07 08:39:50;;;;;;;24.27;17.52;;;;;;;;;;5057984;28;20382;-80
2023/12/07 08:42:16;;;;;;;25.02;16.92;;;;;;;;;;5057307;28;20405;-80
2023/12/07 08:44:43;;;;;;;22.10;16.52;;;;;;;;;;5062481;28;21189;-80
2023/12/07 08:47:09;;;;;;;23.02;16.35;;;;;;;;;;5066084;28;20500;-80
2023/12/07 08:49:36;;;;;;;23.33;17.73;;;;;;;;;;5072021;28;20444;-81
2023/12/07 08:52:01;;;;;;;24.45;17.38;;;;;;;;;;5064026;28;20386;-81
2023/12/07 08:54:27;;;;;;;24.73;17.00;;;;;;;;;;5062585;28;20468;-81
2023/12/07 08:56:53;;;;;;;21.77;16.52;;;;;;;;;;5058319;28;20403;-81
2023/12/07 08:59:20;;;;;;;23.42;17.05;;;;;;;;;;5058314;28;20411;-81
2023/12/07 09:01:46;;;;;;;19.17;16.08;;;;;;;;;;5064538;28;20412;-81
2023/12/07 09:04:12;;;;;;;20.38;16.13;;;;;;;;;;5065347;28;20838;-81
2023/12/07 09:06:38;;;;;;;23.13;17.30;;;;;;;;;;5064153;28;20409;-81
2023/12/07 09:09:04;;;;;;;20.45;16.60;;;;;;;;;;5057908;28;20860;-81
2023/12/07 09:11:31;;;;;;;19.38;16.33;;;;;;;;;;5057510;28;20377;-80
2023/12/07 09:13:57;;;;;;;19.33;16.73;;;;;;;;;;5057142;28;20913;-80
2023/12/07 09:16:24;;;;;;;19.10;16.50;;;;;;;;;;5056810;28;20468;-81
2023/12/07 09:18:50;;;;;;;17.60;14.90;;;;;;;;;;5057059;28;20859;-80
2023/12/07 09:21:16;;;;;;;19.27;16.08;;;;;;;;;;5056826;28;20413;-80
2023/12/07 09:23:42;;;;;;;19.95;15.68;;;;;;;;;;5057608;28;20381;-80
2023/12/07 09:26:08;;;;;;;18.73;14.98;;;;;;;;;;5057327;28;20385;-81
2023/12/07 09:28:34;;;;;;;19.00;15.57;;;;;;;;;;5057330;28;20373;-81
2023/12/07 09:31:00;;;;;;;18.40;15.10;;;;;;;;;;5056228;28;20775;-80
2023/12/07 09:33:26;;;;;;;17.83;14.80;;;;;;;;;;5056581;28;20417;-80
2023/12/07 09:35:52;;;;;;;17.83;15.35;;;;;;;;;;5056458;28;20374;-80
2023/12/07 09:38:18;;;;;;;18.33;15.32;;;;;;;;;;5056551;28;20894;-80
2023/12/07 09:40:46;;;;;;;16.85;14.85;;;;;;;;;;5070649;28;20376;-80
2023/12/07 09:43:12;;;;;;;20.70;16.02;;;;;;;;;;5055937;28;20388;-80
2023/12/07 09:45:38;;;;;;;19.87;16.00;;;;;;;;;;5056008;28;20871;-80
2023/12/07 09:48:04;;;;;;;20.27;16.00;;;;;;;;;;5055817;28;20914;-80
2023/12/07 09:50:31;;;;;;;17.83;15.93;;;;;;;;;;5056105;28;20763;-80
2023/12/07 09:52:58;;;;;;;19.67;16.65;;;;;;;;;;5055924;28;20401;-80
2023/12/07 09:55:24;;;;;;;18.85;16.45;;;;;;;;;;5054935;28;20395;-80
2023/12/07 09:57:51;;;;;;;21.17;16.77;;;;;;;;;;5055904;28;20401;-80
2023/12/07 10:00:17;;;;;;;19.67;16.50;;;;;;;;;;5055521;28;20420;-80
2023/12/07 10:02:45;;;;;;;20.48;16.23;;;;;;;;;;5055972;28;20381;-80
2023/12/07 10:05:16;;;;;;;20.17;16.88;;;;;;;;;;5069816;28;20777;-80
2023/12/07 10:07:49;;;;;;;20.10;16.38;;;;;;;;;;5055812;28;20899;-80
2023/12/07 10:10:15;;;;;;;18.05;16.02;;;;;;;;;;5056026;28;20913;-80
2023/12/07 10:12:46;;;;;;;18.33;15.68;;;;;;;;;;5055826;28;20735;-80
2023/12/07 10:15:16;;;;;;;18.23;15.98;;;;;;;;;;5055835;28;20382;-80
2023/12/07 10:17:49;;;;;;;17.13;15.27;;;;;;;;;;5055909;28;20442;-80
2023/12/07 10:20:18;;;;;;;17.23;15.17;;;;;;;;;;5055532;28;20739;-80
2023/12/07 10:22:47;;;;;;;17.83;14.52;;;;;;;;;;5055430;28;20465;-80
2023/12/07 10:25:13;;;;;;;16.52;14.73;;;;;;;;;;5055742;28;20413;-80
2023/12/07 10:27:41;;;;;;;15.52;13.93;;;;;;;;;;5055520;28;20400;-80
2023/12/07 10:30:09;;;;;;;17.13;14.93;;;;;;;;;;5055575;28;20422;-80
2023/12/07 10:32:41;;;;;;;18.33;16.07;;;;;;;;;;5055485;28;20538;-80
2023/12/07 10:35:09;;;;;;;16.58;14.88;;;;;;;;;;5055068;28;20912;-80
2023/12/07 10:37:35;;;;;;;15.45;13.90;;;;;;;;;;5054886;28;20763;-80
2023/12/07 10:40:01;;;;;;;16.02;14.35;;;;;;;;;;5054998;28;20390;-80
2023/12/07 10:42:31;;;;;;;16.35;14.65;;;;;;;;;;5055478;28;20385;-80
2023/12/07 10:44:58;;;;;;;15.48;13.80;;;;;;;;;;5055457;28;20389;-80
2023/12/07 10:47:24;;;;;;;15.10;13.48;;;;;;;;;;5054908;28;20418;-80
2023/12/07 10:49:53;;;;;;;16.00;14.40;;;;;;;;;;5068912;28;20378;-80
2023/12/07 10:52:22;;;;;;;15.98;14.27;;;;;;;;;;5055583;28;20389;-81
2023/12/07 10:54:56;;;;;;;16.40;14.75;;;;;;;;;;5065947;28;20423;-80
2023/12/07 10:57:22;;;;;;;16.10;14.38;;;;;;;;;;5055425;28;20476;-81
2023/12/07 10:59:50;;;;;;;16.42;14.73;;;;;;;;;;5054833;28;20419;-80
2023/12/07 11:02:16;;;;;;;15.90;14.25;;;;;;;;;;5056158;28;20384;-82
2023/12/07 11:04:42;;;;;;;16.25;14.40;;;;;;;;;;5068051;28;20768;-81
2023/12/07 11:07:11;;;;;;;16.92;15.13;;;;;;;;;;5061040;28;20438;-81
2023/12/07 11:09:45;;;;;;;14.95;13.55;;;;;;;;;;5069235;28;20432;-82
2023/12/07 11:12:19;;;;;;;15.90;14.20;;;;;;;;;;5064216;28;20903;-81
2023/12/07 11:14:45;;;;;;;16.10;14.50;;;;;;;;;;5061841;28;20727;-81
2023/12/07 11:17:11;;;;;;;16.38;14.73;;;;;;;;;;5061620;28;20466;-81
2023/12/07 11:19:39;;;;;;;15.13;13.63;;;;;;;;;;5062176;28;20874;-82
2023/12/07 11:22:10;;;;;;;14.90;13.40;;;;;;;;;;5063051;28;20479;-81
2023/12/07 11:24:36;;;;;;;14.45;13.07;;;;;;;;;;5062247;28;20393;-81
2023/12/07 11:27:02;;;;;;;14.82;13.43;;;;;;;;;;5061391;28;20871;-81
2023/12/07 11:29:31;;;;;;;15.75;14.15;;;;;;;;;;5061962;28;20419;-82
2023/12/07 11:32:01;;;;;;;15.35;13.93;;;;;;;;;;5060854;28;20389;-81
2023/12/07 11:34:36;;;;;;;17.73;16.00;;;;;;;;;;5064670;28;20385;-81
2023/12/07 11:37:03;;;;;;;15.40;13.80;;;;;;;;;;5061223;28;20413;-81
2023/12/07 11:39:29;;;;;;;15.27;13.77;;;;;;;;;;5060425;28;20464;-81
2023/12/07 11:41:56;;;;;;;15.80;14.20;;;;;;;;;;5061528;28;20403;-81
2023/12/07 11:44:34;;;;;;;15.05;13.55;;;;;;;;;;5061574;28;20871;-81
2023/12/07 11:47:00;;;;;;;16.98;15.27;;;;;;;;;;5060097;28;20412;-81
2023/12/07 11:49:26;;;;;;;21.80;19.75;;;;;;;;;;5061494;28;20778;-81
2023/12/07 11:51:52;;;;;;;15.10;13.70;;;;;;;;;;5061633;28;20396;-81
2023/12/07 11:54:18;;;;;;;14.20;12.90;;;;;;;;;;5061768;28;20472;-80
2023/12/07 11:56:44;;;;;;;16.80;15.02;;;;;;;;;;5061463;28;20420;-81
2023/12/07 11:59:10;;;;;;;14.13;12.73;;;;;;;;;;5061843;28;20381;-80
2023/12/07 12:01:36;;;;;;;16.05;14.38;;;;;;;;;;5061549;28;20448;-81
2023/12/07 12:04:04;;;;;;;15.02;13.52;;;;;;;;;;5067763;28;20376;-81
2023/12/07 12:06:30;;;;;;;16.77;14.95;;;;;;;;;;5081780;28;20372;-81
2023/12/07 12:08:56;;;;;;;15.55;13.85;;;;;;;;;;5079907;28;20684;-81
2023/12/07 12:11:22;;;;;;;14.80;13.35;;;;;;;;;;5080215;28;20451;-81
2023/12/07 12:13:49;;;;;;;16.83;15.10;;;;;;;;;;5081226;28;20410;-81
2023/12/07 12:16:15;;;;;;;16.45;14.77;;;;;;;;;;5080809;28;20841;-81
2023/12/07 12:18:42;;;;;;;15.32;13.77;;;;;;;;;;5080192;28;20375;-81
2023/12/07 12:21:09;;;;;;;16.58;14.85;;;;;;;;;;5079765;28;20398;-81
2023/12/07 12:23:35;;;;;;;17.92;16.02;;;;;;;;;;5080982;28;20683;-80
2023/12/07 12:26:01;;;;;;;16.80;15.03;;;;;;;;;;5080438;28;20430;-80
2023/12/07 12:28:28;;;;;;;16.70;15.00;;;;;;;;;;5081792;28;20416;-80
2023/12/07 12:30:54;;;;;;;15.82;14.23;;;;;;;;;;5080466;28;20427;-80
2023/12/07 12:33:20;;;;;;;16.00;14.35;;;;;;;;;;5078858;28;20426;-80
2023/12/07 12:35:46;;;;;;;16.67;14.95;;;;;;;;;;5078794;28;20372;-80
2023/12/07 12:38:13;;;;;;;15.85;14.35;;;;;;;;;;5079652;28;20411;-80
2023/12/07 12:40:41;;;;;;;17.23;15.48;;;;;;;;;;5081547;28;20435;-80
2023/12/07 12:43:07;;;;;;;15.15;13.65;;;;;;;;;;5081250;28;20382;-80
2023/12/07 12:45:34;;;;;;;16.33;14.65;;;;;;;;;;5083315;28;20458;-81
2023/12/07 12:48:00;;;;;;;16.70;14.95;;;;;;;;;;5080721;28;20403;-80
2023/12/07 12:50:39;;;;;;;16.98;15.10;;;;;;;;;;5080390;28;20582;-80
2023/12/07 12:53:15;;;;;;;15.98;14.35;;;;;;;;;;5081507;28;20380;-81
2023/12/07 12:55:42;;;;;;;16.08;14.40;;;;;;;;;;5081285;28;20376;-81
2023/12/07 12:58:09;;;;;;;15.18;13.77;;;;;;;;;;5080680;28;20430;-81
2023/12/07 13:00:38;;;;;;;15.90;14.30;;;;;;;;;;5080829;28;20411;-81
2023/12/07 13:03:05;;;;;;;14.57;13.07;;;;;;;;;;5079868;28;20380;-81
2023/12/07 13:05:34;;;;;;;15.43;13.93;;;;;;;;;;5080662;28;20384;-81
2023/12/07 13:08:01;;;;;;;15.77;14.17;;;;;;;;;;5079935;28;20390;-80
2023/12/07 13:10:27;;;;;;;15.38;13.82;;;;;;;;;;5080531;28;20437;-80
2023/12/07 13:12:53;;;;;;;15.98;14.38;;;;;;;;;;5079764;28;20419;-80
2023/12/07 13:15:19;;;;;;;16.08;14.35;;;;;;;;;;5080712;28;20380;-80
2023/12/07 13:17:45;;;;;;;16.35;14.05;;;;;;;;;;5080237;28;20842;-80
2023/12/07 13:20:13;;;;;;;16.02;14.32;;;;;;;;;;5080911;28;20411;-81
2023/12/07 13:22:40;;;;;;;16.27;14.68;;;;;;;;;;5080915;28;20437;-80
2023/12/07 13:25:06;;;;;;;15.38;13.77;;;;;;;;;;5080196;28;20396;-80
2023/12/07 13:27:33;;;;;;;15.00;13.40;;;;;;;;;;5076336;28;20375;-81
2023/12/07 13:29:59;;;;;;;14.57;13.07;;;;;;;;;;5079881;28;20380;-81
2023/12/07 13:32:25;;;;;;;14.10;12.70;;;;;;;;;;5079811;28;20421;-81
2023/12/07 13:34:52;;;;;;;14.05;12.75;;;;;;;;;;5080448;28;20908;-80
2023/12/07 13:37:18;;;;;;;17.05;15.27;;;;;;;;;;5080039;28;20415;-80
2023/12/07 13:39:44;;;;;;;18.75;16.85;;;;;;;;;;5080980;28;20429;-80
2023/12/07 13:42:10;;;;;;;18.38;16.48;;;;;;;;;;5080625;28;20865;-80
2023/12/07 13:44:36;;;;;;;17.20;15.50;;;;;;;;;;5079998;28;20424;-81
2023/12/07 13:47:03;;;;;;;17.33;15.52;;;;;;;;;;5080431;28;20461;-81
2023/12/07 13:49:29;;;;;;;18.23;16.33;;;;;;;;;;5081016;28;20391;-81
2023/12/07 13:51:55;;;;;;;18.17;16.33;;;;;;;;;;5081856;28;20779;-81
2023/12/07 13:54:22;;;;;;;17.20;15.40;;;;;;;;;;5080758;28;20410;-81
2023/12/07 13:56:48;;;;;;;18.35;16.15;;;;;;;;;;5079906;28;20438;-80
2023/12/07 13:59:14;;;;;;;16.80;15.10;;;;;;;;;;5080545;28;20406;-81
2023/12/07 14:01:40;;;;;;;17.33;15.13;;;;;;;;;;5063045;28;20376;-81
2023/12/07 14:04:07;;;;;;;17.35;15.38;;;;;;;;;;5079540;28;20380;-80
2023/12/07 14:06:35;;;;;;;17.63;15.70;;;;;;;;;;5080511;28;20379;-80
2023/12/07 14:09:01;;;;;;;16.65;14.95;;;;;;;;;;5079973;28;20379;-81
2023/12/07 14:11:27;;;;;;;18.15;15.73;;;;;;;;;;5079552;28;20849;-80
2023/12/07 14:13:54;;;;;;;20.10;16.60;;;;;;;;;;5079467;28;20379;-80
2023/12/07 14:16:20;;;;;;;17.63;15.70;;;;;;;;;;5078844;28;20372;-80
2023/12/07 14:18:47;;;;;;;19.17;16.42;;;;;;;;;;5079079;28;20862;-80
2023/12/07 14:21:12;;;;;;;16.50;14.80;;;;;;;;;;5079516;28;20890;-80